Santos Dumont Airport

SBRJ · Rio de Janeiro, Brazil

METAR history SBRJ · Santos Dumont Airport

Below you see METARs of the last few days. Select a year to browse through older METARs, from the year 2007 onwards.

November 26, 2022

Time Code Weather Temp. Visibility Ceiling Wind METAR/SPECI
23:00
V
23 °C 10 km+ 5,500 ft 250° 250° 4 kt METAR SBGL 270200Z 25004KT 9999 FEW023 BKN055 BKN080 23/20 Q1013
20:00
V
23 °C 10 km+ 6,000 ft 230° 230° 6 kt METAR SBAF 262300Z 23006KT 9999 SCT030 OVC060 23/// Q1014
19:00
V
23 °C 10 km+ 3,000 ft 240° 240° 6 kt METAR SBAF 262200Z 24006KT 9999 BKN030 OVC060 23/// Q1014
18:00
V
23 °C 10 km+ 3,000 ft 240° 240° 8 kt METAR SBAF 262100Z 24008KT 9999 BKN030 OVC060 23/20 Q1013
17:00
V
24 °C 10 km+ 3,000 ft 240° 240° 11 kt METAR SBAF 262000Z 24011KT 9999 BKN030 OVC060 24/20 Q1013
16:00
V
24 °C 10 km+ 3,000 ft 240° 240° 12 kt METAR SBAF 261900Z 24012KT 9999 BKN030 OVC060 24/21 Q1013
15:00
V
26 °C 10 km+ 3,000 ft 240° 240° 11 kt METAR SBAF 261800Z 24011KT 9999 BKN030 26/22 Q1012
14:00
V
26 °C 10 km+ 3,000 ft 220° 220° 11 kt METAR SBAF 261700Z 22011KT 9999 BKN030 26/23 Q1013
13:00
V
25 °C 10 km+ 3,000 ft 240° 240° 12 kt METAR SBAF 261600Z 24012KT 9999 BKN030 25/22 Q1013
12:00
V
25 °C 10 km+ 3,000 ft 250° 250° 8 kt METAR SBAF 261500Z 25008KT 9999 BKN030 25/22 Q1014
11:00
V
26 °C 10 km+ - 230° 230° 7 kt METAR SBAF 261400Z 23007KT 9999 SCT030 26/23 Q1014
10:00
V
25 °C 10 km+ 3,000 ft Var 000° 0 kt METAR SBAF 261300Z 00000KT 9999 BKN030 25/22 Q1014
09:00
V
24 °C 10 km+ 3,000 ft 260° 260° 2 kt METAR SBAF 261200Z 26002KT 9999 BKN030 24/21 Q1014
08:00
V
24 °C 10 km+ 3,000 ft Var 000° 0 kt METAR SBAF 261100Z 00000KT 9999 BKN030 24/20 Q1014
07:00
V
22 °C 10 km+ - Var 000° 0 kt METAR SBAF 261000Z 00000KT 9999 FEW030 22/18 Q1013

November 25, 2022

Time Code Weather Temp. Visibility Ceiling Wind METAR/SPECI
21:00
V
21 °C 10 km+ 3,300 ft Var 000° 0 kt METAR SBAF 260000Z 00000KT 9999 FEW020 BKN033 21/// Q1014
20:00
V
21 °C 10 km+ - 320° 320° 2 kt METAR SBAF 252300Z 32002KT 9999 FEW020 SCT040 21/// Q1014
19:00
V
23 °C 10 km+ - 250° 250° 7 kt METAR SBAF 252200Z 25007KT 9999 FEW015 SCT035 23/// Q1014
18:00
V
23 °C 10 km+ - 250° 250° 9 kt METAR SBAF 252100Z 25009KT 9999 FEW015 SCT035 23/// Q1013
17:00
M
24 °C 10 km+ 2,500 ft 240° 240° 11 kt METAR SBAF 252000Z 24011KT 9999 BKN025 24/// Q1012
16:00
V
26 °C 10 km+ - 280° 280° 11 kt METAR SBAF 251900Z 28011KT 9999 FEW040 26/// Q1012
15:00
V
26 °C 10 km+ - 280° 280° 10 kt METAR SBAF 251800Z 28010KT 9999 SCT040 SCT070 26/// Q1012
14:00
V
27 °C 10 km+ - 270° 270° 10 kt METAR SBAF 251700Z 27010KT 9999 SCT040 27/// Q1012
13:00
V
27 °C 10 km+ - 280° 280° 12 kt METAR SBAF 251600Z 28012KT 9999 SCT030 SCT060 27/// Q1013
12:00
V
26 °C 10 km+ 5,000 ft 280° 280° 11 kt METAR SBAF 251500Z 28011KT 9999 SCT030 BKN050 26/// Q1013
11:00
V
26 °C 10 km+ 5,000 ft 280° 280° 12 kt METAR SBAF 251400Z 28012KT 9999 SCT030 BKN050 26/// Q1013
10:00
V
25 °C 10 km+ 4,000 ft 270° 270° 6 kt METAR SBAF 251300Z 27006KT 9999 SCT020 BKN040 25/// Q1013
09:00
V
25 °C 10 km+ 4,000 ft 250° 250° 9 kt METAR SBAF 251200Z 25009KT 9999 SCT020 BKN040 25/// Q1013
08:00
V
25 °C 10 km+ 4,000 ft 170° 170° 2 kt METAR SBAF 251100Z 17002KT 9999 SCT020 BKN040 25/// Q1013
07:00
V
21 °C 10 km+ 4,000 ft 070° 070° 2 kt METAR SBAF 251000Z 07002KT 9999 SCT020 BKN040 21/// Q1012

November 24, 2022

Time Code Weather Temp. Visibility Ceiling Wind METAR/SPECI
20:00
V
22 °C 10 km+ - Var 000° 0 kt METAR SBAF 242300Z 00000KT 9999 FEW020 22/19 Q1012
19:00
V
23 °C 10 km+ - 220° 220° 4 kt METAR SBAF 242200Z 22004KT 9999 FEW015 SCT060 23/20 Q1011
18:00
V
24 °C 10 km+ - 230° 230° 8 kt METAR SBAF 242100Z 23008KT 9999 FEW015 SCT060 24/21 Q1010
17:00
V
25 °C 10 km+ 6,000 ft 220° 220° 7 kt METAR SBAF 242000Z 22007KT 9999 FEW015 BKN060 25/21 Q1010
16:00
V
25 °C 10 km+ 10,000 ft 250° 250° 7 kt METAR SBAF 241900Z 25007KT 9999 SCT017 BKN100 25/21 Q1010
15:00
V
25 °C 10 km+ 10,000 ft 210° 210° 3 kt METAR SBAF 241800Z 21003KT 9999 SCT017 BKN100 25/// Q1010
14:00
V
25 °C 10 km+ 10,000 ft Var Var 2 kt METAR SBAF 241700Z VRB02KT 9999 SCT017 OVC100 25/// Q1011
13:00
V
24 °C 10 km+ 4,500 ft 040° 040° 2 kt METAR SBAF 241600Z 04002KT 9999 FEW015 BKN045 OVC100 24/// Q1011
12:00
M
23 °C 10 km+ 1,500 ft 070° 070° 2 kt METAR SBAF 241500Z 07002KT 9999 FEW010 BKN015 OVC100 23/// Q1012
11:00
M
23 °C 10 km+ 2,500 ft 230° 230° 3 kt METAR SBAF 241400Z 23003KT 9999 FEW010 BKN025 OVC100 23/// Q1012
10:00
V
23 °C 10 km+ 10,000 ft 120° 120° 3 kt METAR SBAF 241300Z 12003KT 9999 FEW010 OVC100 23/// Q1011
09:00
V
22 °C 10 km+ 10,000 ft 140° 140° 3 kt METAR SBAF 241200Z 14003KT 9999 FEW010 OVC100 22/// Q1012
08:00
V
21 °C 10 km+ 3,500 ft 350° 350° 5 kt METAR SBAF 241100Z 35005KT 9999 FEW010 BKN035 OVC100 21/// Q1011
07:00
V
21 °C 9 km 3,500 ft 060° 060° 4 kt METAR SBAF 241000Z 06004KT 9000 -RA FEW006 BKN035 OVC070 21/// Q1010

We and third parties follow your internet behavior on our website with cookies. If you continue, we assume you agree with our cookie policy.